sensor_id;sensor_type;location;lat;lon;timestamp;temperature;humidity
1377;DHT22;682;52.502;13.488;2023-04-25T00:02:00;9.60;1.00
1377;DHT22;682;52.502;13.488;2023-04-25T00:04:30;9.60;1.00
1377;DHT22;682;52.502;13.488;2023-04-25T00:06:59;9.60;1.00
1377;DHT22;682;52.502;13.488;2023-04-25T00:09:29;9.60;1.00
1377;DHT22;682;52.502;13.488;2023-04-25T00:11:57;9.60;1.00
1377;DHT22;682;52.502;13.488;2023-04-25T00:14:24;9.50;1.00
1377;DHT22;682;52.502;13.488;2023-04-25T00:16:51;9.50;1.00
1377;DHT22;682;52.502;13.488;2023-04-25T00:19:19;9.50;1.00
1377;DHT22;682;52.502;13.488;2023-04-25T00:21:46;9.50;1.00
1377;DHT22;682;52.502;13.488;2023-04-25T00:24:13;9.50;1.00
1377;DHT22;682;52.502;13.488;2023-04-25T00:26:40;9.50;1.00
1377;DHT22;682;52.502;13.488;2023-04-25T00:29:09;9.50;1.00
1377;DHT22;682;52.502;13.488;2023-04-25T00:31:35;9.50;1.00
1377;DHT22;682;52.502;13.488;2023-04-25T00:34:03;9.50;1.00
1377;DHT22;682;52.502;13.488;2023-04-25T00:36:30;9.50;1.00
1377;DHT22;682;52.502;13.488;2023-04-25T00:38:57;9.50;1.00
1377;DHT22;682;52.502;13.488;2023-04-25T00:41:25;9.50;1.00
1377;DHT22;682;52.502;13.488;2023-04-25T00:43:52;9.50;1.00
1377;DHT22;682;52.502;13.488;2023-04-25T00:46:21;9.50;1.00
1377;DHT22;682;52.502;13.488;2023-04-25T00:48:48;9.50;1.00
1377;DHT22;682;52.502;13.488;2023-04-25T00:51:18;9.50;1.00
1377;DHT22;682;52.502;13.488;2023-04-25T00:53:46;9.50;1.00
1377;DHT22;682;52.502;13.488;2023-04-25T00:56:13;9.50;1.00
1377;DHT22;682;52.502;13.488;2023-04-25T00:58:41;9.60;1.00
1377;DHT22;682;52.502;13.488;2023-04-25T01:01:08;9.60;1.00
1377;DHT22;682;52.502;13.488;2023-04-25T01:03:39;9.60;1.00
1377;DHT22;682;52.502;13.488;2023-04-25T01:06:09;9.50;1.00
1377;DHT22;682;52.502;13.488;2023-04-25T01:08:43;9.50;1.00
1377;DHT22;682;52.502;13.488;2023-04-25T01:11:16;9.60;1.00
1377;DHT22;682;52.502;13.488;2023-04-25T01:13:51;9.60;1.00
1377;DHT22;682;52.502;13.488;2023-04-25T01:16:27;9.50;1.00
1377;DHT22;682;52.502;13.488;2023-04-25T01:19:10;9.50;1.00
1377;DHT22;682;52.502;13.488;2023-04-25T01:21:53;9.50;1.00
1377;DHT22;682;52.502;13.488;2023-04-25T01:24:31;9.60;1.00
1377;DHT22;682;52.502;13.488;2023-04-25T01:27:00;9.60;1.00
1377;DHT22;682;52.502;13.488;2023-04-25T01:29:28;9.60;1.00
1377;DHT22;682;52.502;13.488;2023-04-25T01:31:55;9.50;1.00
1377;DHT22;682;52.502;13.488;2023-04-25T01:34:25;9.60;1.00
1377;DHT22;682;52.502;13.488;2023-04-25T01:36:57;9.60;1.00
1377;DHT22;682;52.502;13.488;2023-04-25T01:39:28;9.60;1.00
1377;DHT22;682;52.502;13.488;2023-04-25T01:42:01;9.70;1.00
1377;DHT22;682;52.502;13.488;2023-04-25T01:44:28;9.70;1.00
1377;DHT22;682;52.502;13.488;2023-04-25T01:46:58;9.60;1.00
1377;DHT22;682;52.502;13.488;2023-04-25T01:49:27;9.70;1.00
1377;DHT22;682;52.502;13.488;2023-04-25T01:51:57;9.70;1.00
1377;DHT22;682;52.502;13.488;2023-04-25T01:54:38;9.70;1.00
1377;DHT22;682;52.502;13.488;2023-04-25T01:57:09;9.80;1.00
1377;DHT22;682;52.502;13.488;2023-04-25T01:59:46;9.70;1.00
1377;DHT22;682;52.502;13.488;2023-04-25T02:02:13;9.70;1.00
1377;DHT22;682;52.502;13.488;2023-04-25T02:04:42;9.70;1.00
1377;DHT22;682;52.502;13.488;2023-04-25T02:07:16;9.80;1.00
1377;DHT22;682;52.502;13.488;2023-04-25T02:09:44;9.80;1.00
1377;DHT22;682;52.502;13.488;2023-04-25T02:12:16;9.80;1.00
1377;DHT22;682;52.502;13.488;2023-04-25T02:14:58;9.80;1.00
1377;DHT22;682;52.502;13.488;2023-04-25T02:17:27;9.80;1.00
1377;DHT22;682;52.502;13.488;2023-04-25T02:19:57;9.80;1.00
1377;DHT22;682;52.502;13.488;2023-04-25T02:22:28;9.80;1.00
1377;DHT22;682;52.502;13.488;2023-04-25T02:25:00;9.70;1.00
1377;DHT22;682;52.502;13.488;2023-04-25T02:27:30;9.60;1.00
1377;DHT22;682;52.502;13.488;2023-04-25T02:29:56;9.70;1.00
1377;DHT22;682;52.502;13.488;2023-04-25T02:32:23;9.70;1.00
1377;DHT22;682;52.502;13.488;2023-04-25T02:34:50;9.70;1.00
1377;DHT22;682;52.502;13.488;2023-04-25T02:37:19;9.80;1.00
1377;DHT22;682;52.502;13.488;2023-04-25T02:39:48;9.90;1.00
1377;DHT22;682;52.502;13.488;2023-04-25T02:42:29;9.90;1.00
1377;DHT22;682;52.502;13.488;2023-04-25T02:44:57;9.90;1.00
1377;DHT22;682;52.502;13.488;2023-04-25T02:47:32;9.90;1.00
1377;DHT22;682;52.502;13.488;2023-04-25T02:49:59;9.90;1.00
1377;DHT22;682;52.502;13.488;2023-04-25T02:52:29;9.90;1.00
1377;DHT22;682;52.502;13.488;2023-04-25T02:55:19;9.80;1.00
1377;DHT22;682;52.502;13.488;2023-04-25T02:58:00;9.80;1.00
1377;DHT22;682;52.502;13.488;2023-04-25T03:00:30;9.80;1.00
1377;DHT22;682;52.502;13.488;2023-04-25T03:03:04;9.80;1.00
1377;DHT22;682;52.502;13.488;2023-04-25T03:05:35;9.80;1.00
1377;DHT22;682;52.502;13.488;2023-04-25T03:08:03;9.80;1.00
1377;DHT22;682;52.502;13.488;2023-04-25T03:10:36;9.80;1.00
1377;DHT22;682;52.502;13.488;2023-04-25T03:13:03;9.90;1.00
1377;DHT22;682;52.502;13.488;2023-04-25T03:15:30;9.80;1.00
1377;DHT22;682;52.502;13.488;2023-04-25T03:17:58;9.80;1.00
1377;DHT22;682;52.502;13.488;2023-04-25T03:20:25;9.70;1.00
1377;DHT22;682;52.502;13.488;2023-04-25T03:22:54;9.70;1.00
1377;DHT22;682;52.502;13.488;2023-04-25T03:25:22;9.70;1.00
1377;DHT22;682;52.502;13.488;2023-04-25T03:27:52;9.70;1.00
1377;DHT22;682;52.502;13.488;2023-04-25T03:30:27;9.70;1.00
1377;DHT22;682;52.502;13.488;2023-04-25T03:32:55;9.70;1.00
1377;DHT22;682;52.502;13.488;2023-04-25T03:35:22;9.70;1.00
1377;DHT22;682;52.502;13.488;2023-04-25T03:37:52;9.80;1.00
1377;DHT22;682;52.502;13.488;2023-04-25T03:40:19;9.80;1.00
1377;DHT22;682;52.502;13.488;2023-04-25T03:42:55;9.90;1.00
1377;DHT22;682;52.502;13.488;2023-04-25T03:45:26;9.90;1.00
1377;DHT22;682;52.502;13.488;2023-04-25T03:47:53;9.90;1.00
1377;DHT22;682;52.502;13.488;2023-04-25T03:50:22;9.90;1.00
1377;DHT22;682;52.502;13.488;2023-04-25T03:52:50;9.80;1.00
1377;DHT22;682;52.502;13.488;2023-04-25T03:55:28;9.80;1.00
1377;DHT22;682;52.502;13.488;2023-04-25T03:57:57;9.90;1.00
1377;DHT22;682;52.502;13.488;2023-04-25T04:06:21;9.80;1.00
1377;DHT22;682;52.502;13.488;2023-04-25T04:08:48;9.80;1.00
1377;DHT22;682;52.502;13.488;2023-04-25T04:11:15;9.80;1.00
1377;DHT22;682;52.502;13.488;2023-04-25T04:13:44;9.70;1.00
1377;DHT22;682;52.502;13.488;2023-04-25T04:16:11;9.70;1.00
1377;DHT22;682;52.502;13.488;2023-04-25T04:18:39;9.70;1.00
1377;DHT22;682;52.502;13.488;2023-04-25T04:21:12;9.70;1.00
1377;DHT22;682;52.502;13.488;2023-04-25T04:23:53;9.70;1.00
1377;DHT22;682;52.502;13.488;2023-04-25T04:26:23;9.70;1.00
1377;DHT22;682;52.502;13.488;2023-04-25T04:28:53;9.80;1.00
1377;DHT22;682;52.502;13.488;2023-04-25T04:31:20;9.90;1.00
1377;DHT22;682;52.502;13.488;2023-04-25T04:33:47;9.90;1.00
1377;DHT22;682;52.502;13.488;2023-04-25T04:36:15;9.90;1.00
1377;DHT22;682;52.502;13.488;2023-04-25T04:38:45;9.90;1.00
1377;DHT22;682;52.502;13.488;2023-04-25T04:41:12;9.80;1.00
1377;DHT22;682;52.502;13.488;2023-04-25T04:43:40;9.80;1.00
1377;DHT22;682;52.502;13.488;2023-04-25T04:46:09;9.80;1.00
1377;DHT22;682;52.502;13.488;2023-04-25T04:48:38;9.80;1.00
1377;DHT22;682;52.502;13.488;2023-04-25T04:51:06;9.80;1.00
1377;DHT22;682;52.502;13.488;2023-04-25T04:53:33;9.80;1.00
1377;DHT22;682;52.502;13.488;2023-04-25T04:56:00;9.90;1.00
1377;DHT22;682;52.502;13.488;2023-04-25T04:58:27;10.00;1.00
1377;DHT22;682;52.502;13.488;2023-04-25T05:00:55;10.00;1.00
1377;DHT22;682;52.502;13.488;2023-04-25T05:03:24;10.00;1.00
1377;DHT22;682;52.502;13.488;2023-04-25T05:05:51;10.00;1.00
1377;DHT22;682;52.502;13.488;2023-04-25T05:08:19;10.10;1.00
1377;DHT22;682;52.502;13.488;2023-04-25T05:10:46;10.20;1.00
1377;DHT22;682;52.502;13.488;2023-04-25T05:13:14;10.20;1.00
1377;DHT22;682;52.502;13.488;2023-04-25T05:15:41;10.10;1.00
1377;DHT22;682;52.502;13.488;2023-04-25T05:18:08;10.10;1.00
1377;DHT22;682;52.502;13.488;2023-04-25T05:20:37;10.10;1.00
1377;DHT22;682;52.502;13.488;2023-04-25T05:23:05;10.10;1.00
1377;DHT22;682;52.502;13.488;2023-04-25T05:25:33;10.10;1.00
1377;DHT22;682;52.502;13.488;2023-04-25T05:28:01;10.00;1.00
1377;DHT22;682;52.502;13.488;2023-04-25T05:30:28;10.00;1.00
1377;DHT22;682;52.502;13.488;2023-04-25T05:32:56;10.00;1.00
1377;DHT22;682;52.502;13.488;2023-04-25T05:35:25;10.00;1.00
1377;DHT22;682;52.502;13.488;2023-04-25T05:37:54;10.00;1.00
1377;DHT22;682;52.502;13.488;2023-04-25T05:40:21;10.10;1.00
1377;DHT22;682;52.502;13.488;2023-04-25T05:42:49;10.10;1.00
1377;DHT22;682;52.502;13.488;2023-04-25T05:45:17;10.20;1.00
1377;DHT22;682;52.502;13.488;2023-04-25T05:47:47;10.40;1.00
1377;DHT22;682;52.502;13.488;2023-04-25T05:50:17;10.50;1.00
1377;DHT22;682;52.502;13.488;2023-04-25T05:52:44;10.50;1.00
1377;DHT22;682;52.502;13.488;2023-04-25T05:55:13;10.50;1.00
1377;DHT22;682;52.502;13.488;2023-04-25T05:57:41;10.50;1.00
1377;DHT22;682;52.502;13.488;2023-04-25T06:00:12;10.50;1.00
1377;DHT22;682;52.502;13.488;2023-04-25T06:02:40;10.50;1.00
1377;DHT22;682;52.502;13.488;2023-04-25T06:05:08;10.50;1.00
1377;DHT22;682;52.502;13.488;2023-04-25T06:07:35;10.40;1.00
1377;DHT22;682;52.502;13.488;2023-04-25T06:10:03;10.40;1.00
1377;DHT22;682;52.502;13.488;2023-04-25T06:12:33;10.40;1.00
1377;DHT22;682;52.502;13.488;2023-04-25T06:15:00;10.40;1.00
1377;DHT22;682;52.502;13.488;2023-04-25T06:17:27;10.40;1.00
1377;DHT22;682;52.502;13.488;2023-04-25T06:19:54;10.40;1.00
1377;DHT22;682;52.502;13.488;2023-04-25T06:22:21;10.40;1.00
1377;DHT22;682;52.502;13.488;2023-04-25T06:24:48;10.30;1.00
1377;DHT22;682;52.502;13.488;2023-04-25T06:27:16;10.30;1.00
1377;DHT22;682;52.502;13.488;2023-04-25T06:29:47;10.30;1.00
1377;DHT22;682;52.502;13.488;2023-04-25T06:32:14;10.40;1.00
1377;DHT22;682;52.502;13.488;2023-04-25T06:34:41;10.40;1.00
1377;DHT22;682;52.502;13.488;2023-04-25T06:37:08;10.50;1.00
1377;DHT22;682;52.502;13.488;2023-04-25T06:39:35;10.60;1.00
1377;DHT22;682;52.502;13.488;2023-04-25T06:42:02;10.70;1.00
1377;DHT22;682;52.502;13.488;2023-04-25T06:44:32;10.70;1.00
1377;DHT22;682;52.502;13.488;2023-04-25T06:47:00;10.60;1.00
1377;DHT22;682;52.502;13.488;2023-04-25T06:49:31;10.60;1.00
1377;DHT22;682;52.502;13.488;2023-04-25T06:51:58;10.80;1.00
1377;DHT22;682;52.502;13.488;2023-04-25T06:54:25;10.70;1.00
1377;DHT22;682;52.502;13.488;2023-04-25T06:56:55;10.80;1.00
1377;DHT22;682;52.502;13.488;2023-04-25T06:59:22;10.80;1.00
1377;DHT22;682;52.502;13.488;2023-04-25T07:01:49;10.80;1.00
1377;DHT22;682;52.502;13.488;2023-04-25T07:04:18;10.80;1.00
1377;DHT22;682;52.502;13.488;2023-04-25T07:06:45;10.70;1.00
1377;DHT22;682;52.502;13.488;2023-04-25T07:09:14;10.70;1.00
1377;DHT22;682;52.502;13.488;2023-04-25T07:11:41;10.50;1.00
1377;DHT22;682;52.502;13.488;2023-04-25T07:14:08;10.50;1.00
1377;DHT22;682;52.502;13.488;2023-04-25T07:16:35;10.60;1.00
1377;DHT22;682;52.502;13.488;2023-04-25T07:19:02;10.60;1.00
1377;DHT22;682;52.502;13.488;2023-04-25T07:21:33;10.50;1.00
1377;DHT22;682;52.502;13.488;2023-04-25T07:24:01;10.50;1.00
1377;DHT22;682;52.502;13.488;2023-04-25T07:26:28;10.50;1.00
1377;DHT22;682;52.502;13.488;2023-04-25T07:28:55;10.40;1.00
1377;DHT22;682;52.502;13.488;2023-04-25T07:31:23;10.30;1.00
1377;DHT22;682;52.502;13.488;2023-04-25T07:33:50;10.20;1.00
1377;DHT22;682;52.502;13.488;2023-04-25T07:36:20;10.10;1.00
1377;DHT22;682;52.502;13.488;2023-04-25T07:38:51;10.10;1.00
1377;DHT22;682;52.502;13.488;2023-04-25T07:41:18;10.00;1.00
1377;DHT22;682;52.502;13.488;2023-04-25T07:43:45;9.90;1.00
1377;DHT22;682;52.502;13.488;2023-04-25T07:46:13;10.00;1.00
1377;DHT22;682;52.502;13.488;2023-04-25T07:48:40;10.10;1.00
1377;DHT22;682;52.502;13.488;2023-04-25T07:51:07;10.20;1.00
1377;DHT22;682;52.502;13.488;2023-04-25T07:53:34;10.30;1.00
1377;DHT22;682;52.502;13.488;2023-04-25T07:56:05;10.50;1.00
1377;DHT22;682;52.502;13.488;2023-04-25T07:58:32;10.70;1.00
1377;DHT22;682;52.502;13.488;2023-04-25T08:00:59;10.80;1.00
1377;DHT22;682;52.502;13.488;2023-04-25T08:03:26;11.00;1.00
1377;DHT22;682;52.502;13.488;2023-04-25T08:05:54;11.10;1.00
1377;DHT22;682;52.502;13.488;2023-04-25T08:08:21;11.10;1.00
1377;DHT22;682;52.502;13.488;2023-04-25T08:10:49;10.90;1.00
1377;DHT22;682;52.502;13.488;2023-04-25T08:13:17;10.80;1.00
1377;DHT22;682;52.502;13.488;2023-04-25T08:15:45;10.80;1.00
1377;DHT22;682;52.502;13.488;2023-04-25T08:18:12;10.80;1.00
1377;DHT22;682;52.502;13.488;2023-04-25T08:20:41;11.10;1.00
1377;DHT22;682;52.502;13.488;2023-04-25T08:23:09;11.50;1.00
1377;DHT22;682;52.502;13.488;2023-04-25T08:25:37;12.00;1.00
1377;DHT22;682;52.502;13.488;2023-04-25T08:28:05;12.20;1.00
1377;DHT22;682;52.502;13.488;2023-04-25T08:30:34;12.40;1.00
1377;DHT22;682;52.502;13.488;2023-04-25T08:33:01;12.20;1.00
1377;DHT22;682;52.502;13.488;2023-04-25T08:35:28;12.00;1.00
1377;DHT22;682;52.502;13.488;2023-04-25T08:37:57;12.00;1.00
1377;DHT22;682;52.502;13.488;2023-04-25T08:40:27;12.20;1.00
1377;DHT22;682;52.502;13.488;2023-04-25T08:42:57;12.30;1.00
1377;DHT22;682;52.502;13.488;2023-04-25T08:45:26;12.40;1.00
1377;DHT22;682;52.502;13.488;2023-04-25T08:47:58;12.40;1.00
1377;DHT22;682;52.502;13.488;2023-04-25T08:50:29;12.50;1.00
1377;DHT22;682;52.502;13.488;2023-04-25T09:03:04;11.70;1.00
1377;DHT22;682;52.502;13.488;2023-04-25T09:05:32;11.90;1.00
1377;DHT22;682;52.502;13.488;2023-04-25T09:08:00;12.20;1.00
1377;DHT22;682;52.502;13.488;2023-04-25T09:10:29;12.30;1.00
1377;DHT22;682;52.502;13.488;2023-04-25T09:13:06;12.40;1.00
1377;DHT22;682;52.502;13.488;2023-04-25T09:15:47;12.60;1.00
1377;DHT22;682;52.502;13.488;2023-04-25T09:18:25;12.90;1.00
1377;DHT22;682;52.502;13.488;2023-04-25T09:20:53;12.60;1.00
1377;DHT22;682;52.502;13.488;2023-04-25T09:23:23;12.50;1.00
1377;DHT22;682;52.502;13.488;2023-04-25T09:25:52;12.80;1.00
1377;DHT22;682;52.502;13.488;2023-04-25T09:28:24;13.30;1.00
1377;DHT22;682;52.502;13.488;2023-04-25T09:30:55;13.60;1.00
1377;DHT22;682;52.502;13.488;2023-04-25T09:33:29;14.40;1.00
1377;DHT22;682;52.502;13.488;2023-04-25T09:36:02;14.70;1.00
1377;DHT22;682;52.502;13.488;2023-04-25T09:38:31;14.90;1.00
1377;DHT22;682;52.502;13.488;2023-04-25T09:40:59;15.30;1.00
1377;DHT22;682;52.502;13.488;2023-04-25T09:43:27;15.00;1.00
1377;DHT22;682;52.502;13.488;2023-04-25T09:45:55;14.40;1.00
1377;DHT22;682;52.502;13.488;2023-04-25T09:48:38;14.80;1.00
1377;DHT22;682;52.502;13.488;2023-04-25T09:51:06;15.70;1.00
1377;DHT22;682;52.502;13.488;2023-04-25T09:53:34;16.20;1.00
1377;DHT22;682;52.502;13.488;2023-04-25T09:56:04;16.00;1.00
1377;DHT22;682;52.502;13.488;2023-04-25T09:58:35;15.60;1.00
1377;DHT22;682;52.502;13.488;2023-04-25T10:01:04;14.80;1.00
1377;DHT22;682;52.502;13.488;2023-04-25T10:03:33;14.40;1.00
1377;DHT22;682;52.502;13.488;2023-04-25T10:06:07;14.20;1.00
1377;DHT22;682;52.502;13.488;2023-04-25T10:08:37;14.10;1.00
1377;DHT22;682;52.502;13.488;2023-04-25T10:11:06;14.30;1.00
1377;DHT22;682;52.502;13.488;2023-04-25T10:13:35;13.70;1.00
1377;DHT22;682;52.502;13.488;2023-04-25T10:16:07;13.50;1.00
1377;DHT22;682;52.502;13.488;2023-04-25T10:18:35;13.80;1.00
1377;DHT22;682;52.502;13.488;2023-04-25T10:21:05;14.60;1.00
1377;DHT22;682;52.502;13.488;2023-04-25T10:23:33;14.70;1.00
1377;DHT22;682;52.502;13.488;2023-04-25T10:26:02;14.40;1.00
1377;DHT22;682;52.502;13.488;2023-04-25T10:28:29;14.10;1.00
1377;DHT22;682;52.502;13.488;2023-04-25T10:31:16;14.10;1.00
1377;DHT22;682;52.502;13.488;2023-04-25T10:33:43;13.90;1.00
1377;DHT22;682;52.502;13.488;2023-04-25T10:36:13;13.90;1.00
1377;DHT22;682;52.502;13.488;2023-04-25T10:38:42;13.60;1.00
1377;DHT22;682;52.502;13.488;2023-04-25T10:41:11;13.60;1.00
1377;DHT22;682;52.502;13.488;2023-04-25T10:43:40;13.80;1.00
1377;DHT22;682;52.502;13.488;2023-04-25T10:46:16;14.10;1.00
1377;DHT22;682;52.502;13.488;2023-04-25T10:48:47;14.30;1.00
1377;DHT22;682;52.502;13.488;2023-04-25T10:51:22;14.00;1.00
1377;DHT22;682;52.502;13.488;2023-04-25T10:54:00;13.60;1.00
1377;DHT22;682;52.502;13.488;2023-04-25T10:56:28;13.30;1.00
1377;DHT22;682;52.502;13.488;2023-04-25T10:59:06;13.10;1.00
1377;DHT22;682;52.502;13.488;2023-04-25T11:01:39;13.00;1.00
1377;DHT22;682;52.502;13.488;2023-04-25T11:04:19;13.00;1.00
1377;DHT22;682;52.502;13.488;2023-04-25T11:07:04;13.00;1.00
1377;DHT22;682;52.502;13.488;2023-04-25T11:09:36;13.10;1.00
1377;DHT22;682;52.502;13.488;2023-04-25T11:12:06;13.00;1.00
1377;DHT22;682;52.502;13.488;2023-04-25T11:14:35;13.30;1.00
1377;DHT22;682;52.502;13.488;2023-04-25T11:17:02;13.90;1.00
1377;DHT22;682;52.502;13.488;2023-04-25T11:19:29;14.30;1.00
1377;DHT22;682;52.502;13.488;2023-04-25T11:21:58;14.50;1.00
1377;DHT22;682;52.502;13.488;2023-04-25T11:24:27;14.60;1.00
1377;DHT22;682;52.502;13.488;2023-04-25T11:27:00;14.30;1.00
1377;DHT22;682;52.502;13.488;2023-04-25T11:29:30;13.80;1.00
1377;DHT22;682;52.502;13.488;2023-04-25T11:32:01;13.10;1.00
1377;DHT22;682;52.502;13.488;2023-04-25T11:34:32;12.60;1.00
1377;DHT22;682;52.502;13.488;2023-04-25T11:37:01;12.20;1.00
1377;DHT22;682;52.502;13.488;2023-04-25T11:39:33;11.80;1.00
1377;DHT22;682;52.502;13.488;2023-04-25T11:42:04;11.70;1.00
1377;DHT22;682;52.502;13.488;2023-04-25T11:44:31;11.70;1.00
1377;DHT22;682;52.502;13.488;2023-04-25T11:46:58;11.70;1.00
1377;DHT22;682;52.502;13.488;2023-04-25T11:49:30;11.80;1.00
1377;DHT22;682;52.502;13.488;2023-04-25T11:51:57;11.80;1.00
1377;DHT22;682;52.502;13.488;2023-04-25T11:54:26;12.00;1.00
1377;DHT22;682;52.502;13.488;2023-04-25T11:56:54;12.10;1.00
1377;DHT22;682;52.502;13.488;2023-04-25T11:59:24;12.20;1.00
1377;DHT22;682;52.502;13.488;2023-04-25T12:01:52;12.40;1.00
1377;DHT22;682;52.502;13.488;2023-04-25T12:04:21;12.70;1.00
1377;DHT22;682;52.502;13.488;2023-04-25T12:06:51;12.90;1.00
1377;DHT22;682;52.502;13.488;2023-04-25T12:09:19;13.00;1.00
1377;DHT22;682;52.502;13.488;2023-04-25T12:11:53;12.80;1.00
1377;DHT22;682;52.502;13.488;2023-04-25T12:14:22;12.70;1.00
1377;DHT22;682;52.502;13.488;2023-04-25T12:16:52;12.70;1.00
1377;DHT22;682;52.502;13.488;2023-04-25T12:19:23;12.80;1.00
1377;DHT22;682;52.502;13.488;2023-04-25T12:21:50;12.80;1.00
1377;DHT22;682;52.502;13.488;2023-04-25T12:24:22;12.90;1.00
1377;DHT22;682;52.502;13.488;2023-04-25T12:26:53;12.80;1.00
1377;DHT22;682;52.502;13.488;2023-04-25T12:29:23;12.90;1.00
1377;DHT22;682;52.502;13.488;2023-04-25T12:31:52;13.00;1.00
1377;DHT22;682;52.502;13.488;2023-04-25T12:34:22;13.20;1.00
1377;DHT22;682;52.502;13.488;2023-04-25T12:36:50;13.30;1.00
1377;DHT22;682;52.502;13.488;2023-04-25T12:39:18;13.60;1.00
1377;DHT22;682;52.502;13.488;2023-04-25T12:41:47;14.00;1.00
1377;DHT22;682;52.502;13.488;2023-04-25T12:44:16;14.40;1.00
1377;DHT22;682;52.502;13.488;2023-04-25T12:46:44;14.60;1.00
1377;DHT22;682;52.502;13.488;2023-04-25T12:49:11;15.30;1.00
1377;DHT22;682;52.502;13.488;2023-04-25T12:51:39;15.70;1.00
1377;DHT22;682;52.502;13.488;2023-04-25T12:54:07;15.70;1.00
1377;DHT22;682;52.502;13.488;2023-04-25T12:56:35;15.60;1.00
1377;DHT22;682;52.502;13.488;2023-04-25T12:59:02;15.10;1.00
1377;DHT22;682;52.502;13.488;2023-04-25T13:01:31;14.40;1.00
1377;DHT22;682;52.502;13.488;2023-04-25T13:03:58;14.00;1.00
1377;DHT22;682;52.502;13.488;2023-04-25T13:06:26;13.50;1.00
1377;DHT22;682;52.502;13.488;2023-04-25T13:08:57;13.50;1.00
1377;DHT22;682;52.502;13.488;2023-04-25T13:11:24;13.30;1.00
1377;DHT22;682;52.502;13.488;2023-04-25T13:13:51;13.40;1.00
1377;DHT22;682;52.502;13.488;2023-04-25T13:16:19;13.70;1.00
1377;DHT22;682;52.502;13.488;2023-04-25T13:18:49;14.00;1.00
1377;DHT22;682;52.502;13.488;2023-04-25T13:21:16;14.20;1.00
1377;DHT22;682;52.502;13.488;2023-04-25T13:23:45;14.60;1.00
1377;DHT22;682;52.502;13.488;2023-04-25T13:26:12;15.60;1.00
1377;DHT22;682;52.502;13.488;2023-04-25T13:28:42;16.60;1.00
1377;DHT22;682;52.502;13.488;2023-04-25T13:31:12;17.80;1.00
1377;DHT22;682;52.502;13.488;2023-04-25T13:33:40;19.00;1.00
1377;DHT22;682;52.502;13.488;2023-04-25T13:36:09;20.00;1.00
1377;DHT22;682;52.502;13.488;2023-04-25T13:38:37;19.50;1.00
1377;DHT22;682;52.502;13.488;2023-04-25T13:41:04;18.10;1.00
1377;DHT22;682;52.502;13.488;2023-04-25T13:43:32;17.00;1.00
1377;DHT22;682;52.502;13.488;2023-04-25T13:45:59;16.00;1.00
1377;DHT22;682;52.502;13.488;2023-04-25T13:48:28;15.20;1.00
1377;DHT22;682;52.502;13.488;2023-04-25T13:50:57;14.70;1.00
1377;DHT22;682;52.502;13.488;2023-04-25T13:53:25;14.40;1.00
1377;DHT22;682;52.502;13.488;2023-04-25T13:55:53;14.20;1.00
1377;DHT22;682;52.502;13.488;2023-04-25T13:58:21;14.10;1.00
1377;DHT22;682;52.502;13.488;2023-04-25T14:00:48;14.00;1.00
1377;DHT22;682;52.502;13.488;2023-04-25T14:03:15;14.20;1.00
1377;DHT22;682;52.502;13.488;2023-04-25T14:05:45;14.50;1.00
1377;DHT22;682;52.502;13.488;2023-04-25T14:08:12;14.80;1.00
1377;DHT22;682;52.502;13.488;2023-04-25T14:10:43;14.80;1.00
1377;DHT22;682;52.502;13.488;2023-04-25T14:13:10;14.50;1.00
1377;DHT22;682;52.502;13.488;2023-04-25T14:15:38;14.10;1.00
1377;DHT22;682;52.502;13.488;2023-04-25T14:18:06;13.40;1.00
1377;DHT22;682;52.502;13.488;2023-04-25T14:20:34;13.20;1.00
1377;DHT22;682;52.502;13.488;2023-04-25T14:23:02;12.90;1.00
1377;DHT22;682;52.502;13.488;2023-04-25T14:25:30;12.80;1.00
1377;DHT22;682;52.502;13.488;2023-04-25T14:28:02;12.50;1.00
1377;DHT22;682;52.502;13.488;2023-04-25T14:30:30;12.30;1.00
1377;DHT22;682;52.502;13.488;2023-04-25T14:32:57;12.20;1.00
1377;DHT22;682;52.502;13.488;2023-04-25T14:35:25;12.20;1.00
1377;DHT22;682;52.502;13.488;2023-04-25T14:37:54;12.00;1.00
1377;DHT22;682;52.502;13.488;2023-04-25T14:40:23;11.90;1.00
1377;DHT22;682;52.502;13.488;2023-04-25T14:42:51;11.90;1.00
1377;DHT22;682;52.502;13.488;2023-04-25T14:45:19;12.00;1.00
1377;DHT22;682;52.502;13.488;2023-04-25T14:47:49;12.20;1.00
1377;DHT22;682;52.502;13.488;2023-04-25T14:50:16;12.60;1.00
1377;DHT22;682;52.502;13.488;2023-04-25T14:52:44;13.60;1.00
1377;DHT22;682;52.502;13.488;2023-04-25T14:55:12;15.20;1.00
1377;DHT22;682;52.502;13.488;2023-04-25T14:57:39;16.00;1.00
1377;DHT22;682;52.502;13.488;2023-04-25T15:00:08;15.80;1.00
1377;DHT22;682;52.502;13.488;2023-04-25T15:02:38;15.00;1.00
1377;DHT22;682;52.502;13.488;2023-04-25T15:05:06;14.20;1.00
1377;DHT22;682;52.502;13.488;2023-04-25T15:07:35;13.50;1.00
1377;DHT22;682;52.502;13.488;2023-04-25T15:10:04;13.00;1.00
1377;DHT22;682;52.502;13.488;2023-04-25T15:12:38;12.50;1.00
1377;DHT22;682;52.502;13.488;2023-04-25T15:15:07;12.00;1.00
1377;DHT22;682;52.502;13.488;2023-04-25T15:17:38;11.90;1.00
1377;DHT22;682;52.502;13.488;2023-04-25T15:20:06;11.80;1.00
1377;DHT22;682;52.502;13.488;2023-04-25T15:22:35;11.70;1.00
1377;DHT22;682;52.502;13.488;2023-04-25T15:25:03;11.70;1.00
1377;DHT22;682;52.502;13.488;2023-04-25T15:27:32;11.80;1.00
1377;DHT22;682;52.502;13.488;2023-04-25T15:30:00;11.90;1.00
1377;DHT22;682;52.502;13.488;2023-04-25T15:32:29;11.90;1.00
1377;DHT22;682;52.502;13.488;2023-04-25T15:34:58;11.90;1.00
1377;DHT22;682;52.502;13.488;2023-04-25T15:37:27;12.00;1.00
1377;DHT22;682;52.502;13.488;2023-04-25T15:40:00;12.30;1.00
1377;DHT22;682;52.502;13.488;2023-04-25T15:42:31;13.10;1.00
1377;DHT22;682;52.502;13.488;2023-04-25T15:44:58;13.80;1.00
1377;DHT22;682;52.502;13.488;2023-04-25T15:47:26;13.90;1.00
1377;DHT22;682;52.502;13.488;2023-04-25T15:49:53;13.90;1.00
1377;DHT22;682;52.502;13.488;2023-04-25T15:52:21;14.30;1.00
1377;DHT22;682;52.502;13.488;2023-04-25T15:54:48;15.30;1.00
1377;DHT22;682;52.502;13.488;2023-04-25T15:57:15;15.80;1.00
1377;DHT22;682;52.502;13.488;2023-04-25T15:59:42;16.20;1.00
1377;DHT22;682;52.502;13.488;2023-04-25T16:02:11;16.70;1.00
1377;DHT22;682;52.502;13.488;2023-04-25T16:04:39;16.70;1.00
1377;DHT22;682;52.502;13.488;2023-04-25T16:07:12;15.90;1.00
1377;DHT22;682;52.502;13.488;2023-04-25T16:09:40;15.00;1.00
1377;DHT22;682;52.502;13.488;2023-04-25T16:12:09;14.30;1.00
1377;DHT22;682;52.502;13.488;2023-04-25T16:14:40;13.50;1.00
1377;DHT22;682;52.502;13.488;2023-04-25T16:17:07;13.00;1.00
1377;DHT22;682;52.502;13.488;2023-04-25T16:19:34;12.60;1.00
1377;DHT22;682;52.502;13.488;2023-04-25T16:22:01;12.40;1.00
1377;DHT22;682;52.502;13.488;2023-04-25T16:24:28;12.20;1.00
1377;DHT22;682;52.502;13.488;2023-04-25T16:26:56;11.90;1.00
1377;DHT22;682;52.502;13.488;2023-04-25T16:29:24;11.80;1.00
1377;DHT22;682;52.502;13.488;2023-04-25T16:31:55;11.70;1.00
1377;DHT22;682;52.502;13.488;2023-04-25T16:34:22;11.70;1.00
1377;DHT22;682;52.502;13.488;2023-04-25T16:36:52;11.60;1.00
1377;DHT22;682;52.502;13.488;2023-04-25T16:39:23;11.30;1.00
1377;DHT22;682;52.502;13.488;2023-04-25T16:41:50;11.20;1.00
1377;DHT22;682;52.502;13.488;2023-04-25T16:44:19;11.00;1.00
1377;DHT22;682;52.502;13.488;2023-04-25T16:46:47;10.90;1.00
1377;DHT22;682;52.502;13.488;2023-04-25T16:49:14;10.90;1.00
1377;DHT22;682;52.502;13.488;2023-04-25T16:51:41;10.90;1.00